Accueil
METAR-TAF:

METAR-TAF

Aéroports :

Cleburne Municipal Airport

Cleburne, Texas, États-Unis

latitude: 32-21-13N, longitude: 097-26-01W, altitude: 260 m

Observation

Le bulletin a été fait il y a 15 minutes, à 17:15 UTC
Vent 14 kt de est/sud-est
Température 19°C
Humidité 100%
Pression 1018 hPa
Visibilité: 16.1 km
Ciel clair

METAR: KCPT 201715Z AUTO 11014KT 10SM CLR 19/19 A3006 RMK AO2 LTG DSNT E AND SE

Heure: 12:30 (17:30 UTC)


TAF: absent

Observations et prévisions météorologiques de plus de 4000 aéroports (messages METAR et TAF).

Les stations disponibles sont représentées par des disques jaunes et rouges sur la carte.

Passer la souris dessus pour voir le nom de la station.

Cliquer dessus pour voir les observations et prévisions météorologiques.

Pour changer de carte: cliquez sur les boutons verts avec une croix noire pour zoomer, sur le bouton vert avec un tiret pour effectuer un zoom arrière, ou sur les flèches vertes pour les cartes adjacentes.


METAR-TAF: